createdAt,value
2018-06-21T00:02:18.908Z,6.10
2018-06-21T00:04:47.356Z,5.87
2018-06-21T00:07:15.869Z,6.87
2018-06-21T00:09:44.481Z,6.73
2018-06-21T00:12:12.900Z,6.80
2018-06-21T00:14:41.353Z,7.20
2018-06-21T00:17:09.805Z,6.87
2018-06-21T00:19:38.233Z,7.13
2018-06-21T00:22:06.658Z,6.93
2018-06-21T00:24:35.103Z,7.17
2018-06-21T00:27:03.594Z,6.87
2018-06-21T00:29:32.028Z,6.07
2018-06-21T00:32:00.444Z,6.80
2018-06-21T00:34:28.884Z,7.40
2018-06-21T00:36:57.317Z,8.60
2018-06-21T00:39:25.813Z,7.87
2018-06-21T00:41:54.231Z,8.10
2018-06-21T00:44:22.669Z,8.80
2018-06-21T00:46:51.083Z,7.40
2018-06-21T00:49:19.516Z,7.60
2018-06-21T00:51:47.924Z,7.70
2018-06-21T00:54:16.363Z,7.57
2018-06-21T00:56:44.813Z,8.23
2018-06-21T00:59:13.241Z,9.00
2018-06-21T01:01:41.641Z,9.20
2018-06-21T01:04:10.069Z,9.70
2018-06-21T01:06:38.468Z,11.63
2018-06-21T01:09:07.328Z,11.23
2018-06-21T01:11:35.842Z,11.40
2018-06-21T01:14:04.278Z,12.07
2018-06-21T01:16:32.697Z,12.70
2018-06-21T01:19:01.122Z,12.00
2018-06-21T01:21:29.629Z,12.13
2018-06-21T01:23:58.057Z,11.77
2018-06-21T01:26:27.256Z,12.80
2018-06-21T01:28:55.694Z,13.30
2018-06-21T01:31:24.096Z,12.10
2018-06-21T01:33:52.500Z,14.07
2018-06-21T01:36:20.906Z,13.57
2018-06-21T01:38:49.301Z,12.67
2018-06-21T01:41:17.741Z,14.60
2018-06-21T01:43:46.140Z,14.00
2018-06-21T01:46:14.608Z,13.70
2018-06-21T01:48:43.008Z,13.83
2018-06-21T01:51:11.448Z,13.50
2018-06-21T01:53:39.912Z,12.20
2018-06-21T01:56:08.355Z,12.30
2018-06-21T01:58:36.780Z,12.60
2018-06-21T02:01:05.281Z,12.23
2018-06-21T02:03:33.695Z,11.97
2018-06-21T02:06:02.148Z,11.90
2018-06-21T02:08:30.564Z,11.90
2018-06-21T02:10:59.004Z,11.93
2018-06-21T02:13:27.527Z,12.27
2018-06-21T02:15:55.971Z,12.10
2018-06-21T02:18:24.401Z,11.83
2018-06-21T02:20:52.846Z,11.53
2018-06-21T02:23:21.403Z,12.60
2018-06-21T02:25:49.852Z,11.57
2018-06-21T02:28:18.301Z,11.17
2018-06-21T02:30:46.756Z,12.40
2018-06-21T02:33:15.193Z,12.70
2018-06-21T02:35:43.628Z,12.40
2018-06-21T02:38:12.055Z,12.77
2018-06-21T02:40:40.516Z,12.00
2018-06-21T02:43:08.937Z,12.53
2018-06-21T02:45:37.464Z,12.17
2018-06-21T02:48:05.925Z,11.20
2018-06-21T02:50:34.474Z,13.30
2018-06-21T02:53:02.929Z,11.60
2018-06-21T02:55:31.396Z,11.07
2018-06-21T02:57:59.840Z,12.53
2018-06-21T03:00:28.281Z,12.43
2018-06-21T03:02:56.709Z,11.43
2018-06-21T03:05:25.164Z,12.63
2018-06-21T03:07:53.585Z,10.13
2018-06-21T03:10:22.038Z,10.60
2018-06-21T03:12:50.459Z,11.23
2018-06-21T03:15:18.901Z,10.57
2018-06-21T03:17:47.327Z,11.23
2018-06-21T03:20:15.772Z,12.40
2018-06-21T03:22:44.212Z,13.13
2018-06-21T03:25:12.652Z,12.10
2018-06-21T03:27:41.173Z,12.00
2018-06-21T03:30:09.612Z,11.33
2018-06-21T03:32:38.035Z,12.40
2018-06-21T03:35:06.528Z,13.27
2018-06-21T03:37:35.000Z,12.17
2018-06-21T03:40:03.838Z,12.50
2018-06-21T03:42:32.320Z,11.93
2018-06-21T03:45:00.674Z,11.70
2018-06-21T03:47:29.089Z,11.03
2018-06-21T03:49:57.695Z,12.00
2018-06-21T03:52:26.111Z,11.27
2018-06-21T03:54:54.768Z,12.40
2018-06-21T03:57:23.274Z,11.00
2018-06-21T03:59:51.733Z,11.80
2018-06-21T04:02:20.208Z,10.83
2018-06-21T04:04:48.563Z,10.90
2018-06-21T04:07:16.978Z,10.60
2018-06-21T04:09:45.368Z,10.50
2018-06-21T04:12:13.757Z,9.07
2018-06-21T04:14:42.143Z,9.33
2018-06-21T04:17:10.527Z,9.33
2018-06-21T04:19:38.929Z,8.20
2018-06-21T04:22:07.365Z,9.33
2018-06-21T04:24:35.824Z,8.43
2018-06-21T04:27:04.247Z,8.97
2018-06-21T04:29:32.774Z,9.43
2018-06-21T04:32:01.169Z,9.63
2018-06-21T04:34:29.568Z,9.30
2018-06-21T04:36:57.668Z,9.37
2018-06-21T04:39:26.219Z,8.73
2018-06-21T04:41:54.611Z,8.80
2018-06-21T04:44:23.028Z,9.10
2018-06-21T04:46:51.556Z,8.90
2018-06-21T04:49:19.923Z,10.53
2018-06-21T04:51:48.307Z,10.07
2018-06-21T04:54:16.978Z,9.90
2018-06-21T04:56:45.475Z,10.50
2018-06-21T04:59:13.863Z,10.97
2018-06-21T05:01:42.264Z,11.00
2018-06-21T05:04:10.863Z,11.00
2018-06-21T05:06:39.384Z,10.83
2018-06-21T05:09:10.211Z,10.63
2018-06-21T05:11:38.628Z,14.20
2018-06-21T05:14:07.099Z,15.80
2018-06-21T05:16:35.499Z,15.87
2018-06-21T05:19:03.975Z,17.50
2018-06-21T05:21:32.636Z,18.07
2018-06-21T05:24:01.051Z,20.00
2018-06-21T05:26:29.543Z,21.97
2018-06-21T05:28:57.915Z,21.00
2018-06-21T05:31:26.371Z,21.73
2018-06-21T05:33:54.799Z,21.63
2018-06-21T05:36:23.214Z,23.10
2018-06-21T05:38:51.927Z,22.30
2018-06-21T05:41:20.320Z,23.40
2018-06-21T05:43:48.695Z,24.77
2018-06-21T05:46:17.161Z,25.03
2018-06-21T05:48:45.560Z,26.47
2018-06-21T05:51:13.943Z,26.27
2018-06-21T05:53:42.608Z,26.83
2018-06-21T05:56:11.021Z,29.23
2018-06-21T05:58:39.594Z,28.00
2018-06-21T06:01:08.036Z,29.57
2018-06-21T06:03:36.436Z,29.50
2018-06-21T06:06:04.903Z,27.53
2018-06-21T06:08:33.446Z,28.77
2018-06-21T06:11:04.171Z,26.97
2018-06-21T06:13:32.600Z,25.50
2018-06-21T06:16:00.969Z,27.70
2018-06-21T06:18:29.369Z,23.27
2018-06-21T06:20:57.855Z,24.30
2018-06-21T06:23:26.312Z,23.37
2018-06-21T06:25:55.165Z,22.30
2018-06-21T06:28:23.598Z,21.73
2018-06-21T06:30:51.969Z,21.60
2018-06-21T06:33:20.532Z,20.73
2018-06-21T06:35:48.895Z,20.50
2018-06-21T06:38:17.460Z,19.80
2018-06-21T06:40:45.873Z,18.77
2018-06-21T06:43:14.308Z,19.10
2018-06-21T06:45:42.742Z,17.87
2018-06-21T06:48:11.191Z,15.10
2018-06-21T06:50:39.570Z,14.93
2018-06-21T06:53:07.988Z,15.10
2018-06-21T06:55:36.367Z,15.47
2018-06-21T06:58:05.136Z,16.67
2018-06-21T07:00:33.532Z,16.43
2018-06-21T07:03:01.936Z,16.20
2018-06-21T07:05:30.358Z,16.33
2018-06-21T07:07:58.784Z,16.47
2018-06-21T07:10:27.151Z,15.00
2018-06-21T07:12:55.632Z,16.50
2018-06-21T07:15:24.020Z,15.60
2018-06-21T07:17:52.462Z,15.37
2018-06-21T07:20:21.002Z,14.10
2018-06-21T07:22:49.615Z,13.93
2018-06-21T07:25:17.971Z,11.77
2018-06-21T07:27:46.372Z,11.93
2018-06-21T07:30:14.772Z,11.47
2018-06-21T07:32:43.207Z,11.00
2018-06-21T07:35:11.721Z,9.50
2018-06-21T07:37:40.215Z,10.03
2018-06-21T07:40:08.651Z,10.27
2018-06-21T07:42:37.039Z,10.10
2018-06-21T07:45:05.538Z,6.80
2018-06-21T07:47:33.948Z,5.20
2018-06-21T07:50:02.361Z,4.20
2018-06-21T07:52:31.020Z,4.20
2018-06-21T07:54:59.491Z,3.10
2018-06-21T07:57:27.935Z,3.97
2018-06-21T07:59:56.375Z,3.30
2018-06-21T08:02:24.812Z,3.73
2018-06-21T08:04:53.193Z,3.70
2018-06-21T08:07:21.616Z,3.80
2018-06-21T08:09:50.030Z,3.33
2018-06-21T08:12:18.403Z,2.80
2018-06-21T08:14:46.780Z,3.27
2018-06-21T08:17:15.216Z,3.20
2018-06-21T08:19:43.627Z,3.53
2018-06-21T08:22:12.171Z,3.70
2018-06-21T08:24:40.583Z,3.37
2018-06-21T08:27:09.083Z,2.73
2018-06-21T08:29:37.476Z,2.73
2018-06-21T08:32:05.988Z,2.80
2018-06-21T08:34:34.418Z,2.63
2018-06-21T08:37:02.792Z,2.60
2018-06-21T08:39:31.221Z,1.97
2018-06-21T08:41:59.612Z,2.53
2018-06-21T08:44:27.890Z,3.00
2018-06-21T08:46:56.314Z,3.23
2018-06-21T08:49:24.728Z,2.70
2018-06-21T08:51:53.191Z,2.47
2018-06-21T08:54:21.688Z,2.50
2018-06-21T08:56:50.071Z,2.40
2018-06-21T08:59:18.487Z,2.83
2018-06-21T09:01:46.839Z,2.73
2018-06-21T09:04:15.233Z,2.47
2018-06-21T09:06:43.337Z,2.50
2018-06-21T09:09:11.771Z,2.73
2018-06-21T09:11:40.116Z,3.60
2018-06-21T09:14:08.815Z,2.40
2018-06-21T09:16:37.200Z,2.40
2018-06-21T09:19:05.639Z,2.23
2018-06-21T09:21:34.035Z,1.57
2018-06-21T09:24:02.448Z,1.50
2018-06-21T09:26:30.803Z,1.73
2018-06-21T09:28:59.302Z,1.93
2018-06-21T09:31:27.691Z,1.73
2018-06-21T09:33:56.250Z,1.83
2018-06-21T09:36:24.597Z,2.20
2018-06-21T09:38:58.239Z,2.10
2018-06-21T09:41:32.043Z,2.33
2018-06-21T09:44:05.797Z,2.90
2018-06-21T09:46:39.450Z,2.33
2018-06-21T09:49:07.833Z,2.10
2018-06-21T09:51:36.176Z,1.77
2018-06-21T09:54:04.858Z,2.17
2018-06-21T09:56:33.239Z,2.03
2018-06-21T09:59:01.631Z,2.50
2018-06-21T10:01:30.036Z,2.40
2018-06-21T10:03:58.474Z,2.40
2018-06-21T10:06:26.884Z,2.60
2018-06-21T10:08:55.339Z,2.50
2018-06-21T10:11:23.464Z,2.33
2018-06-21T10:13:51.891Z,2.70
2018-06-21T10:16:20.293Z,2.97
2018-06-21T10:18:48.652Z,2.13
2018-06-21T10:21:17.080Z,2.30
2018-06-21T10:23:45.456Z,2.40
2018-06-21T10:26:13.905Z,2.20
2018-06-21T10:28:42.315Z,2.33
2018-06-21T10:31:10.973Z,2.43
2018-06-21T10:33:39.354Z,2.60
2018-06-21T10:36:07.783Z,2.20
2018-06-21T10:38:36.172Z,2.10
2018-06-21T10:41:04.815Z,2.57
2018-06-21T10:43:33.312Z,2.37
2018-06-21T10:46:02.049Z,2.17
2018-06-21T10:48:30.621Z,2.10
2018-06-21T10:50:59.184Z,3.23
2018-06-21T10:53:27.676Z,2.73
2018-06-21T10:55:56.072Z,2.30
2018-06-21T10:58:24.624Z,2.23
2018-06-21T11:00:53.136Z,2.47
2018-06-21T11:03:21.590Z,2.07
2018-06-21T11:05:50.001Z,1.93
2018-06-21T11:08:18.352Z,2.10
2018-06-21T11:10:46.724Z,1.77
2018-06-21T11:13:15.163Z,1.70
2018-06-21T11:15:43.529Z,1.73
2018-06-21T11:18:11.876Z,2.50
2018-06-21T11:20:40.259Z,2.13
2018-06-21T11:23:08.639Z,1.60
2018-06-21T11:25:37.184Z,2.00
2018-06-21T11:28:05.718Z,1.47
2018-06-21T11:30:34.292Z,1.73
2018-06-21T11:33:02.697Z,1.50
2018-06-21T11:35:31.219Z,1.37
2018-06-21T11:37:59.659Z,1.80
2018-06-21T11:40:28.029Z,2.10
2018-06-21T11:42:56.598Z,1.70
2018-06-21T11:45:24.988Z,1.90
2018-06-21T11:47:53.355Z,1.67
2018-06-21T11:50:22.067Z,1.57
2018-06-21T11:52:50.601Z,1.83
2018-06-21T11:55:19.069Z,1.70
2018-06-21T11:57:47.486Z,2.27
2018-06-21T12:00:15.937Z,2.00
2018-06-21T12:02:44.352Z,1.90
2018-06-21T12:05:12.768Z,1.87
2018-06-21T12:07:41.144Z,1.50
2018-06-21T12:10:09.582Z,2.03
2018-06-21T12:12:37.974Z,1.73
2018-06-21T12:15:06.405Z,1.93
2018-06-21T12:17:34.898Z,1.60
2018-06-21T12:20:03.315Z,1.80
2018-06-21T12:22:31.734Z,1.83
2018-06-21T12:25:00.122Z,1.63
2018-06-21T12:27:28.532Z,1.77
2018-06-21T12:29:57.116Z,1.97
2018-06-21T12:32:25.647Z,1.83
2018-06-21T12:34:54.050Z,2.43
2018-06-21T12:37:22.439Z,2.07
2018-06-21T12:39:50.934Z,2.93
2018-06-21T12:42:19.389Z,2.87
2018-06-21T12:44:47.768Z,2.10
2018-06-21T12:47:16.411Z,2.17
2018-06-21T12:49:44.876Z,2.03
2018-06-21T12:52:13.260Z,2.03
2018-06-21T12:54:41.706Z,1.60
2018-06-21T12:57:10.103Z,1.90
2018-06-21T12:59:38.459Z,1.90
2018-06-21T13:02:06.861Z,2.27
2018-06-21T13:04:35.275Z,2.43
2018-06-21T13:07:03.663Z,2.23
2018-06-21T13:09:43.396Z,1.80
2018-06-21T13:12:24.593Z,2.67
2018-06-21T13:14:53.412Z,1.70
2018-06-21T13:17:21.804Z,2.00
2018-06-21T13:19:50.455Z,2.20
2018-06-21T13:22:19.724Z,1.80
2018-06-21T13:24:48.151Z,2.10
2018-06-21T13:27:16.613Z,2.00
2018-06-21T13:29:44.982Z,1.80
2018-06-21T13:32:13.460Z,2.50
2018-06-21T13:34:42.071Z,2.23
2018-06-21T13:37:10.528Z,1.97
2018-06-21T13:39:38.861Z,2.10
2018-06-21T13:42:07.233Z,2.47
2018-06-21T13:44:35.594Z,1.73
2018-06-21T13:47:04.153Z,2.10
2018-06-21T13:49:32.595Z,2.10
2018-06-21T13:52:01.167Z,1.83
2018-06-21T13:54:29.808Z,2.00
2018-06-21T13:56:59.252Z,2.33
2018-06-21T13:59:27.640Z,2.27
2018-06-21T14:01:56.399Z,2.30
2018-06-21T14:04:24.832Z,1.90
2018-06-21T14:06:53.261Z,2.10
2018-06-21T14:09:22.132Z,2.00
2018-06-21T14:11:50.556Z,1.77
2018-06-21T14:14:19.355Z,2.20
2018-06-21T14:16:47.800Z,2.67
2018-06-21T14:19:16.193Z,2.30
2018-06-21T14:21:44.650Z,1.90
2018-06-21T14:24:14.180Z,2.10
2018-06-21T14:26:43.099Z,2.70
2018-06-21T14:29:11.475Z,2.43
2018-06-21T14:31:39.924Z,2.67
2018-06-21T14:34:08.307Z,2.10
2018-06-21T14:36:36.716Z,2.00
2018-06-21T14:39:07.441Z,2.43
2018-06-21T14:41:35.887Z,2.03
2018-06-21T14:44:04.309Z,2.23
2018-06-21T14:46:32.711Z,1.87
2018-06-21T14:49:01.211Z,1.87
2018-06-21T14:51:29.523Z,1.57
2018-06-21T14:53:58.053Z,2.57
2018-06-21T14:56:26.471Z,2.53
2018-06-21T14:58:54.887Z,2.40
2018-06-21T15:01:23.332Z,2.10
2018-06-21T15:03:51.789Z,2.30
2018-06-21T15:06:20.254Z,1.90
2018-06-21T15:08:48.720Z,2.20
2018-06-21T15:11:17.143Z,2.10
2018-06-21T15:13:49.795Z,2.30
2018-06-21T15:16:20.108Z,2.07
2018-06-21T15:18:48.617Z,2.20
2018-06-21T15:21:17.759Z,2.50
2018-06-21T15:23:46.431Z,1.77
2018-06-21T15:26:14.856Z,1.90
2018-06-21T15:28:43.548Z,2.10
2018-06-21T15:31:11.924Z,2.27
2018-06-21T15:33:40.384Z,1.67
2018-06-21T15:36:08.835Z,1.90
2018-06-21T15:38:37.380Z,2.20
2018-06-21T15:41:12.579Z,1.53
2018-06-21T15:43:41.100Z,1.93
2018-06-21T15:46:09.672Z,2.03
2018-06-21T15:48:38.112Z,1.80
2018-06-21T15:51:06.521Z,1.90
2018-06-21T15:53:34.910Z,2.17
2018-06-21T15:56:03.310Z,1.80
2018-06-21T15:58:31.663Z,1.47
2018-06-21T16:01:00.053Z,1.30
2018-06-21T16:03:28.457Z,1.87
2018-06-21T16:05:57.061Z,2.20
2018-06-21T16:08:25.557Z,2.40
2018-06-21T16:10:53.998Z,2.03
2018-06-21T16:13:22.459Z,1.80
2018-06-21T16:15:50.890Z,2.63
2018-06-21T16:18:19.233Z,2.53
2018-06-21T16:20:47.594Z,2.17
2018-06-21T16:23:15.964Z,2.40
2018-06-21T16:25:44.364Z,2.10
2018-06-21T16:28:12.736Z,1.80
2018-06-21T16:30:41.092Z,2.10
2018-06-21T16:33:09.455Z,2.13
2018-06-21T16:35:37.905Z,2.17
2018-06-21T16:38:06.489Z,2.33
2018-06-21T16:40:34.872Z,1.87
2018-06-21T16:43:03.303Z,1.47
2018-06-21T16:45:31.710Z,1.40
2018-06-21T16:48:00.187Z,1.80
2018-06-21T16:50:28.536Z,1.70
2018-06-21T16:52:57.020Z,1.80
2018-06-21T16:55:25.435Z,2.07
2018-06-21T16:57:54.025Z,1.80
2018-06-21T17:00:22.543Z,1.73
2018-06-21T17:02:50.977Z,1.73
2018-06-21T17:05:19.372Z,1.93
2018-06-21T17:07:47.891Z,1.90
2018-06-21T17:10:16.421Z,2.03
2018-06-21T17:12:44.780Z,2.23
2018-06-21T17:15:13.265Z,2.20
2018-06-21T17:17:41.628Z,1.83
2018-06-21T17:20:10.145Z,1.63
2018-06-21T17:22:38.736Z,1.97
2018-06-21T17:25:07.227Z,1.40
2018-06-21T17:27:35.816Z,1.80
2018-06-21T17:30:04.330Z,1.77
2018-06-21T17:32:32.687Z,1.40
2018-06-21T17:35:01.478Z,1.93
2018-06-21T17:37:30.085Z,1.70
2018-06-21T17:39:58.618Z,2.00
2018-06-21T17:42:27.196Z,1.80
2018-06-21T17:44:55.590Z,2.00
2018-06-21T17:47:23.975Z,2.13
2018-06-21T17:49:52.577Z,1.70
2018-06-21T17:52:20.989Z,1.80
2018-06-21T17:54:49.435Z,2.17
2018-06-21T17:57:17.973Z,1.77
2018-06-21T17:59:46.740Z,1.93
2018-06-21T18:02:15.124Z,2.33
2018-06-21T18:04:43.532Z,2.60
2018-06-21T18:07:11.935Z,2.03
2018-06-21T18:09:40.364Z,1.90
2018-06-21T18:12:08.905Z,2.40
2018-06-21T18:14:37.341Z,1.80
2018-06-21T18:17:06.027Z,2.90
2018-06-21T18:19:34.460Z,1.80
2018-06-21T18:22:02.862Z,3.33
2018-06-21T18:24:31.341Z,2.00
2018-06-21T18:26:59.772Z,2.77
2018-06-21T18:29:28.176Z,1.97
2018-06-21T18:31:56.554Z,2.20
2018-06-21T18:34:24.988Z,2.33
2018-06-21T18:36:53.360Z,1.70
2018-06-21T18:39:21.793Z,2.30
2018-06-21T18:41:50.384Z,2.40
2018-06-21T18:44:18.824Z,1.93
2018-06-21T18:46:47.208Z,2.00
2018-06-21T18:49:15.645Z,1.63
2018-06-21T18:51:44.022Z,2.07
2018-06-21T18:54:12.480Z,2.50
2018-06-21T18:56:40.928Z,1.63
2018-06-21T18:59:09.355Z,2.17
2018-06-21T19:01:37.752Z,1.97
2018-06-21T19:04:06.504Z,2.00
2018-06-21T19:06:40.252Z,2.00
2018-06-21T19:09:13.947Z,2.60
2018-06-21T19:11:47.635Z,2.37
2018-06-21T19:14:16.027Z,1.70
2018-06-21T19:16:44.643Z,2.40
2018-06-21T19:19:13.016Z,3.10
2018-06-21T19:21:41.495Z,2.53
2018-06-21T19:24:09.964Z,2.80
2018-06-21T19:26:38.421Z,2.20
2018-06-21T19:29:06.796Z,2.40
2018-06-21T19:31:35.424Z,2.90
2018-06-21T19:34:03.825Z,3.37
2018-06-21T19:36:32.357Z,4.00
2018-06-21T19:39:00.887Z,2.50
2018-06-21T19:41:29.302Z,2.90
2018-06-21T19:43:57.574Z,2.60
2018-06-21T19:46:26.304Z,3.70
2018-06-21T19:48:54.720Z,2.53
2018-06-21T19:51:23.109Z,2.63
2018-06-21T19:53:51.502Z,3.27
2018-06-21T19:56:19.896Z,3.30
2018-06-21T19:58:48.410Z,2.60
2018-06-21T20:01:16.809Z,2.53
2018-06-21T20:03:45.243Z,3.20
2018-06-21T20:06:13.557Z,2.63
2018-06-21T20:08:42.934Z,3.40
2018-06-21T20:11:16.757Z,3.50
2018-06-21T20:13:48.509Z,3.20
2018-06-21T20:16:17.387Z,3.10
2018-06-21T20:18:45.756Z,3.20
2018-06-21T20:21:15.308Z,3.57
2018-06-21T20:23:45.273Z,3.60
2018-06-21T20:26:13.827Z,3.13
2018-06-21T20:28:42.553Z,3.17
2018-06-21T20:31:14.100Z,2.63
2018-06-21T20:33:43.632Z,3.37
2018-06-21T20:36:12.944Z,2.97
2018-06-21T20:38:41.554Z,2.40
2018-06-21T20:41:10.345Z,3.10
2018-06-21T20:43:38.717Z,3.07
2018-06-21T20:46:07.169Z,3.03
2018-06-21T20:48:35.544Z,2.47
2018-06-21T20:51:03.947Z,4.10
2018-06-21T20:53:32.356Z,2.30
2018-06-21T20:56:00.727Z,2.30
2018-06-21T20:58:29.144Z,2.20
2018-06-21T21:00:57.555Z,2.20
2018-06-21T21:03:25.937Z,2.87
2018-06-21T21:05:54.320Z,3.30
2018-06-21T21:08:22.720Z,2.67
2018-06-21T21:10:51.087Z,2.70
2018-06-21T21:13:19.473Z,2.70
2018-06-21T21:15:47.848Z,1.93
2018-06-21T21:18:16.234Z,2.47
2018-06-21T21:20:44.600Z,2.27
2018-06-21T21:23:13.061Z,2.57
2018-06-21T21:25:41.416Z,2.43
2018-06-21T21:28:09.851Z,3.00
2018-06-21T21:30:38.256Z,2.53
2018-06-21T21:33:06.682Z,2.50
2018-06-21T21:35:35.114Z,2.30
2018-06-21T21:38:03.504Z,3.13
2018-06-21T21:40:31.924Z,2.43
2018-06-21T21:43:00.393Z,2.60
2018-06-21T21:45:28.828Z,2.47
2018-06-21T21:47:57.207Z,2.13
2018-06-21T21:50:25.644Z,2.67
2018-06-21T21:52:54.092Z,3.13
2018-06-21T21:55:22.517Z,2.10
2018-06-21T21:57:50.892Z,2.83
2018-06-21T22:00:56.310Z,2.43
2018-06-21T22:03:24.814Z,2.70
2018-06-21T22:05:53.246Z,2.33
2018-06-21T22:08:21.598Z,3.30
2018-06-21T22:10:50.281Z,3.77
2018-06-21T22:13:19.137Z,2.60
2018-06-21T22:15:47.476Z,2.63
2018-06-21T22:18:15.835Z,3.23
2018-06-21T22:20:44.223Z,2.47
2018-06-21T22:23:12.580Z,3.13
2018-06-21T22:25:40.968Z,2.47
2018-06-21T22:28:09.340Z,3.10
2018-06-21T22:30:37.744Z,3.27
2018-06-21T22:33:06.200Z,2.90
2018-06-21T22:35:34.654Z,3.13
2018-06-21T22:38:03.023Z,3.30
2018-06-21T22:40:31.882Z,3.30
2018-06-21T22:43:00.268Z,2.83
2018-06-21T22:45:28.367Z,2.70
2018-06-21T22:47:56.748Z,2.60
2018-06-21T22:50:25.140Z,2.50
2018-06-21T22:52:53.561Z,2.70
2018-06-21T22:55:21.936Z,2.40
2018-06-21T22:57:50.425Z,3.27
2018-06-21T23:00:18.804Z,2.27
2018-06-21T23:02:47.219Z,2.10
2018-06-21T23:05:15.672Z,2.33
2018-06-21T23:07:44.041Z,2.50
2018-06-21T23:10:12.426Z,2.23
2018-06-21T23:12:40.793Z,3.10
2018-06-21T23:15:09.191Z,2.97
2018-06-21T23:17:37.573Z,2.40
2018-06-21T23:20:06.008Z,3.50
2018-06-21T23:22:34.428Z,2.50
2018-06-21T23:25:02.799Z,2.80
2018-06-21T23:27:31.183Z,3.37
2018-06-21T23:29:59.614Z,3.60
2018-06-21T23:32:27.997Z,2.60
2018-06-21T23:34:56.445Z,3.93
2018-06-21T23:37:24.838Z,3.47
2018-06-21T23:39:53.272Z,3.37
2018-06-21T23:42:21.652Z,3.37
2018-06-21T23:44:50.030Z,3.03
2018-06-21T23:47:18.417Z,3.00
2018-06-21T23:49:46.810Z,3.63
2018-06-21T23:52:15.368Z,4.17
2018-06-21T23:54:43.842Z,4.60
2018-06-21T23:57:12.218Z,4.80
2018-06-21T23:59:40.731Z,3.50
